sensor_id;sensor_type;location;lat;lon;timestamp;P1;durP1;ratioP1;P2;durP2;ratioP2
48861;SDS011;34681;49.188;-0.374;2022-11-20T00:02:12;10.33;;;9.40;;
48861;SDS011;34681;49.188;-0.374;2022-11-20T00:04:37;8.50;;;7.37;;
48861;SDS011;34681;49.188;-0.374;2022-11-20T00:07:02;9.37;;;8.57;;
48861;SDS011;34681;49.188;-0.374;2022-11-20T00:09:28;14.53;;;9.33;;
48861;SDS011;34681;49.188;-0.374;2022-11-20T00:11:53;9.67;;;8.67;;
48861;SDS011;34681;49.188;-0.374;2022-11-20T00:14:18;10.23;;;8.23;;
48861;SDS011;34681;49.188;-0.374;2022-11-20T00:16:44;8.73;;;7.87;;
48861;SDS011;34681;49.188;-0.374;2022-11-20T00:19:09;9.37;;;7.00;;
48861;SDS011;34681;49.188;-0.374;2022-11-20T00:21:34;7.70;;;6.90;;
48861;SDS011;34681;49.188;-0.374;2022-11-20T00:24:00;7.97;;;7.33;;
48861;SDS011;34681;49.188;-0.374;2022-11-20T00:26:25;7.43;;;6.40;;
48861;SDS011;34681;49.188;-0.374;2022-11-20T00:28:53;8.27;;;7.40;;
48861;SDS011;34681;49.188;-0.374;2022-11-20T00:31:23;7.67;;;6.87;;
48861;SDS011;34681;49.188;-0.374;2022-11-20T00:33:49;7.57;;;6.70;;
48861;SDS011;34681;49.188;-0.374;2022-11-20T00:36:16;6.33;;;5.83;;
48861;SDS011;34681;49.188;-0.374;2022-11-20T00:38:43;6.47;;;5.87;;
48861;SDS011;34681;49.188;-0.374;2022-11-20T00:41:10;8.83;;;6.67;;
48861;SDS011;34681;49.188;-0.374;2022-11-20T00:43:37;6.87;;;6.13;;
48861;SDS011;34681;49.188;-0.374;2022-11-20T00:46:05;7.90;;;6.97;;
48861;SDS011;34681;49.188;-0.374;2022-11-20T00:48:31;9.20;;;6.17;;
48861;SDS011;34681;49.188;-0.374;2022-11-20T00:50:57;7.13;;;6.43;;
48861;SDS011;34681;49.188;-0.374;2022-11-20T00:53:23;8.30;;;5.40;;
48861;SDS011;34681;49.188;-0.374;2022-11-20T00:58:21;8.80;;;6.23;;
48861;SDS011;34681;49.188;-0.374;2022-11-20T01:00:46;6.13;;;5.53;;
48861;SDS011;34681;49.188;-0.374;2022-11-20T01:03:12;8.20;;;6.10;;
48861;SDS011;34681;49.188;-0.374;2022-11-20T01:05:38;8.77;;;6.23;;
48861;SDS011;34681;49.188;-0.374;2022-11-20T01:08:03;7.10;;;6.37;;
48861;SDS011;34681;49.188;-0.374;2022-11-20T01:10:28;7.67;;;6.33;;
48861;SDS011;34681;49.188;-0.374;2022-11-20T01:12:54;5.97;;;5.47;;
48861;SDS011;34681;49.188;-0.374;2022-11-20T01:15:39;7.67;;;6.57;;
48861;SDS011;34681;49.188;-0.374;2022-11-20T01:18:04;9.07;;;5.57;;
48861;SDS011;34681;49.188;-0.374;2022-11-20T01:20:34;9.13;;;5.83;;
48861;SDS011;34681;49.188;-0.374;2022-11-20T01:23:01;8.33;;;6.30;;
48861;SDS011;34681;49.188;-0.374;2022-11-20T01:25:27;6.97;;;5.37;;
48861;SDS011;34681;49.188;-0.374;2022-11-20T01:27:53;7.63;;;5.67;;
48861;SDS011;34681;49.188;-0.374;2022-11-20T01:30:18;7.77;;;6.50;;
48861;SDS011;34681;49.188;-0.374;2022-11-20T01:32:44;8.97;;;5.10;;
48861;SDS011;34681;49.188;-0.374;2022-11-20T01:35:09;7.17;;;5.97;;
48861;SDS011;34681;49.188;-0.374;2022-11-20T01:37:35;8.50;;;6.50;;
48861;SDS011;34681;49.188;-0.374;2022-11-20T01:40:00;8.57;;;6.50;;
48861;SDS011;34681;49.188;-0.374;2022-11-20T01:42:26;6.20;;;5.60;;
48861;SDS011;34681;49.188;-0.374;2022-11-20T01:48:18;7.20;;;5.70;;
48861;SDS011;34681;49.188;-0.374;2022-11-20T01:50:46;7.53;;;5.37;;
48861;SDS011;34681;49.188;-0.374;2022-11-20T01:53:12;7.33;;;6.50;;
48861;SDS011;34681;49.188;-0.374;2022-11-20T01:55:43;7.63;;;6.07;;
48861;SDS011;34681;49.188;-0.374;2022-11-20T01:58:12;7.17;;;6.40;;
48861;SDS011;34681;49.188;-0.374;2022-11-20T02:00:38;7.00;;;6.30;;
48861;SDS011;34681;49.188;-0.374;2022-11-20T02:03:06;9.90;;;6.30;;
48861;SDS011;34681;49.188;-0.374;2022-11-20T02:05:47;6.27;;;5.67;;
48861;SDS011;34681;49.188;-0.374;2022-11-20T02:08:15;6.17;;;5.57;;
48861;SDS011;34681;49.188;-0.374;2022-11-20T02:10:41;6.93;;;5.43;;
48861;SDS011;34681;49.188;-0.374;2022-11-20T02:13:06;5.73;;;5.40;;
48861;SDS011;34681;49.188;-0.374;2022-11-20T02:15:51;7.83;;;6.63;;
48861;SDS011;34681;49.188;-0.374;2022-11-20T02:18:17;5.63;;;5.13;;
48861;SDS011;34681;49.188;-0.374;2022-11-20T02:20:45;6.37;;;5.77;;
48861;SDS011;34681;49.188;-0.374;2022-11-20T02:26:02;6.60;;;6.00;;
48861;SDS011;34681;49.188;-0.374;2022-11-20T02:28:32;6.37;;;5.77;;
48861;SDS011;34681;49.188;-0.374;2022-11-20T02:30:58;9.10;;;6.60;;
48861;SDS011;34681;49.188;-0.374;2022-11-20T02:33:23;6.70;;;6.10;;
48861;SDS011;34681;49.188;-0.374;2022-11-20T02:35:49;6.70;;;6.10;;
48861;SDS011;34681;49.188;-0.374;2022-11-20T02:38:14;7.50;;;5.30;;
48861;SDS011;34681;49.188;-0.374;2022-11-20T02:40:40;11.30;;;6.83;;
48861;SDS011;34681;49.188;-0.374;2022-11-20T02:43:06;6.20;;;5.53;;
48861;SDS011;34681;49.188;-0.374;2022-11-20T02:45:32;6.33;;;5.67;;
48861;SDS011;34681;49.188;-0.374;2022-11-20T02:47:58;9.47;;;6.30;;
48861;SDS011;34681;49.188;-0.374;2022-11-20T02:50:23;7.70;;;6.07;;
48861;SDS011;34681;49.188;-0.374;2022-11-20T02:52:48;7.13;;;6.43;;
48861;SDS011;34681;49.188;-0.374;2022-11-20T02:55:14;6.90;;;6.30;;
48861;SDS011;34681;49.188;-0.374;2022-11-20T02:57:39;6.73;;;5.73;;
48861;SDS011;34681;49.188;-0.374;2022-11-20T03:00:05;6.53;;;6.03;;
48861;SDS011;34681;49.188;-0.374;2022-11-20T03:02:31;7.23;;;5.33;;
48861;SDS011;34681;49.188;-0.374;2022-11-20T03:04:57;8.80;;;5.57;;
48861;SDS011;34681;49.188;-0.374;2022-11-20T03:07:23;5.73;;;5.33;;
48861;SDS011;34681;49.188;-0.374;2022-11-20T03:09:48;6.73;;;5.40;;
48861;SDS011;34681;49.188;-0.374;2022-11-20T03:12:13;5.77;;;5.37;;
48861;SDS011;34681;49.188;-0.374;2022-11-20T03:14:39;5.50;;;5.10;;
48861;SDS011;34681;49.188;-0.374;2022-11-20T03:17:04;5.53;;;5.03;;
48861;SDS011;34681;49.188;-0.374;2022-11-20T03:19:30;6.60;;;5.90;;
48861;SDS011;34681;49.188;-0.374;2022-11-20T03:21:55;7.00;;;6.37;;
48861;SDS011;34681;49.188;-0.374;2022-11-20T03:24:20;5.80;;;5.30;;
48861;SDS011;34681;49.188;-0.374;2022-11-20T03:26:46;7.10;;;4.97;;
48861;SDS011;34681;49.188;-0.374;2022-11-20T03:29:11;5.47;;;4.97;;
48861;SDS011;34681;49.188;-0.374;2022-11-20T03:31:37;5.30;;;4.80;;
48861;SDS011;34681;49.188;-0.374;2022-11-20T03:34:08;4.77;;;4.37;;
48861;SDS011;34681;49.188;-0.374;2022-11-20T03:36:37;5.63;;;5.03;;
48861;SDS011;34681;49.188;-0.374;2022-11-20T03:39:04;8.97;;;5.43;;
48861;SDS011;34681;49.188;-0.374;2022-11-20T03:41:30;5.73;;;5.17;;
48861;SDS011;34681;49.188;-0.374;2022-11-20T03:43:57;4.50;;;4.20;;
48861;SDS011;34681;49.188;-0.374;2022-11-20T03:46:25;6.87;;;4.73;;
48861;SDS011;34681;49.188;-0.374;2022-11-20T03:48:51;7.50;;;4.93;;
48861;SDS011;34681;49.188;-0.374;2022-11-20T03:51:21;5.70;;;5.13;;
48861;SDS011;34681;49.188;-0.374;2022-11-20T03:53:49;4.83;;;4.53;;
48861;SDS011;34681;49.188;-0.374;2022-11-20T03:56:17;5.13;;;4.63;;
48861;SDS011;34681;49.188;-0.374;2022-11-20T03:58:44;6.03;;;4.47;;
48861;SDS011;34681;49.188;-0.374;2022-11-20T04:01:11;7.20;;;4.87;;
48861;SDS011;34681;49.188;-0.374;2022-11-20T04:03:48;6.27;;;5.20;;
48861;SDS011;34681;49.188;-0.374;2022-11-20T04:06:18;5.47;;;4.70;;
48861;SDS011;34681;49.188;-0.374;2022-11-20T04:08:45;4.67;;;4.27;;
48861;SDS011;34681;49.188;-0.374;2022-11-20T04:11:12;5.10;;;4.50;;
48861;SDS011;34681;49.188;-0.374;2022-11-20T04:13:38;5.37;;;4.53;;
48861;SDS011;34681;49.188;-0.374;2022-11-20T04:16:05;5.20;;;4.37;;
48861;SDS011;34681;49.188;-0.374;2022-11-20T04:18:31;10.10;;;5.10;;
48861;SDS011;34681;49.188;-0.374;2022-11-20T04:20:57;8.47;;;4.70;;
48861;SDS011;34681;49.188;-0.374;2022-11-20T04:23:23;7.37;;;5.60;;
48861;SDS011;34681;49.188;-0.374;2022-11-20T04:25:49;8.40;;;4.43;;
48861;SDS011;34681;49.188;-0.374;2022-11-20T04:28:14;3.90;;;3.57;;
48861;SDS011;34681;49.188;-0.374;2022-11-20T04:30:39;6.70;;;3.43;;
48861;SDS011;34681;49.188;-0.374;2022-11-20T04:33:05;6.00;;;4.20;;
48861;SDS011;34681;49.188;-0.374;2022-11-20T04:35:33;6.10;;;4.40;;
48861;SDS011;34681;49.188;-0.374;2022-11-20T04:37:59;4.70;;;4.30;;
48861;SDS011;34681;49.188;-0.374;2022-11-20T04:40:25;4.43;;;4.03;;
48861;SDS011;34681;49.188;-0.374;2022-11-20T04:42:50;4.30;;;4.00;;
48861;SDS011;34681;49.188;-0.374;2022-11-20T04:45:15;10.10;;;4.87;;
48861;SDS011;34681;49.188;-0.374;2022-11-20T04:47:41;8.00;;;4.43;;
48861;SDS011;34681;49.188;-0.374;2022-11-20T04:50:06;4.00;;;3.60;;
48861;SDS011;34681;49.188;-0.374;2022-11-20T04:52:32;6.10;;;4.43;;
48861;SDS011;34681;49.188;-0.374;2022-11-20T04:54:57;4.40;;;4.07;;
48861;SDS011;34681;49.188;-0.374;2022-11-20T04:57:22;5.63;;;5.07;;
48861;SDS011;34681;49.188;-0.374;2022-11-20T04:59:47;9.80;;;4.70;;
48861;SDS011;34681;49.188;-0.374;2022-11-20T05:02:13;5.00;;;4.47;;
48861;SDS011;34681;49.188;-0.374;2022-11-20T05:04:38;6.00;;;4.20;;
48861;SDS011;34681;49.188;-0.374;2022-11-20T05:07:04;5.37;;;4.13;;
48861;SDS011;34681;49.188;-0.374;2022-11-20T05:09:29;5.97;;;5.57;;
48861;SDS011;34681;49.188;-0.374;2022-11-20T05:11:55;6.57;;;4.47;;
48861;SDS011;34681;49.188;-0.374;2022-11-20T05:14:20;5.10;;;4.70;;
48861;SDS011;34681;49.188;-0.374;2022-11-20T05:16:45;5.50;;;4.97;;
48861;SDS011;34681;49.188;-0.374;2022-11-20T05:19:11;5.13;;;3.87;;
48861;SDS011;34681;49.188;-0.374;2022-11-20T05:21:36;5.20;;;4.43;;
48861;SDS011;34681;49.188;-0.374;2022-11-20T05:24:01;4.93;;;4.53;;
48861;SDS011;34681;49.188;-0.374;2022-11-20T05:26:27;4.10;;;3.80;;
48861;SDS011;34681;49.188;-0.374;2022-11-20T05:28:52;7.47;;;6.20;;
48861;SDS011;34681;49.188;-0.374;2022-11-20T05:31:19;5.90;;;4.47;;
48861;SDS011;34681;49.188;-0.374;2022-11-20T05:33:49;6.03;;;4.60;;
48861;SDS011;34681;49.188;-0.374;2022-11-20T05:36:16;5.47;;;4.93;;
48861;SDS011;34681;49.188;-0.374;2022-11-20T05:38:42;7.27;;;5.93;;
48861;SDS011;34681;49.188;-0.374;2022-11-20T05:43:35;4.73;;;4.33;;
48861;SDS011;34681;49.188;-0.374;2022-11-20T05:46:02;5.77;;;5.20;;
48861;SDS011;34681;49.188;-0.374;2022-11-20T05:48:28;4.97;;;4.57;;
48861;SDS011;34681;49.188;-0.374;2022-11-20T05:50:56;6.83;;;5.50;;
48861;SDS011;34681;49.188;-0.374;2022-11-20T05:53:23;10.30;;;5.83;;
48861;SDS011;34681;49.188;-0.374;2022-11-20T05:55:55;5.50;;;4.23;;
48861;SDS011;34681;49.188;-0.374;2022-11-20T05:58:22;4.80;;;4.50;;
48861;SDS011;34681;49.188;-0.374;2022-11-20T06:00:47;5.37;;;4.97;;
48861;SDS011;34681;49.188;-0.374;2022-11-20T06:03:12;4.80;;;4.40;;
48861;SDS011;34681;49.188;-0.374;2022-11-20T06:05:38;7.17;;;5.00;;
48861;SDS011;34681;49.188;-0.374;2022-11-20T06:08:03;5.37;;;4.87;;
48861;SDS011;34681;49.188;-0.374;2022-11-20T06:10:28;6.93;;;6.33;;
48861;SDS011;34681;49.188;-0.374;2022-11-20T06:12:56;5.03;;;4.70;;
48861;SDS011;34681;49.188;-0.374;2022-11-20T06:15:22;5.73;;;5.13;;
48861;SDS011;34681;49.188;-0.374;2022-11-20T06:17:51;5.17;;;4.83;;
48861;SDS011;34681;49.188;-0.374;2022-11-20T06:20:18;6.00;;;5.50;;
48861;SDS011;34681;49.188;-0.374;2022-11-20T06:22:44;5.40;;;5.10;;
48861;SDS011;34681;49.188;-0.374;2022-11-20T06:25:09;6.30;;;5.87;;
48861;SDS011;34681;49.188;-0.374;2022-11-20T06:27:35;7.70;;;7.20;;
48861;SDS011;34681;49.188;-0.374;2022-11-20T06:30:00;6.10;;;5.67;;
48861;SDS011;34681;49.188;-0.374;2022-11-20T06:32:26;5.30;;;4.80;;
48861;SDS011;34681;49.188;-0.374;2022-11-20T06:34:51;6.20;;;5.80;;
48861;SDS011;34681;49.188;-0.374;2022-11-20T06:37:16;5.03;;;4.53;;
48861;SDS011;34681;49.188;-0.374;2022-11-20T06:39:42;5.00;;;4.63;;
48861;SDS011;34681;49.188;-0.374;2022-11-20T06:42:08;4.83;;;4.43;;
48861;SDS011;34681;49.188;-0.374;2022-11-20T06:44:34;5.70;;;5.30;;
48861;SDS011;34681;49.188;-0.374;2022-11-20T06:46:59;6.13;;;4.30;;
48861;SDS011;34681;49.188;-0.374;2022-11-20T06:49:25;4.20;;;4.00;;
48861;SDS011;34681;49.188;-0.374;2022-11-20T06:51:50;4.87;;;4.47;;
48861;SDS011;34681;49.188;-0.374;2022-11-20T06:54:15;4.07;;;3.87;;
48861;SDS011;34681;49.188;-0.374;2022-11-20T06:56:41;4.40;;;3.90;;
48861;SDS011;34681;49.188;-0.374;2022-11-20T06:59:06;6.60;;;6.07;;
48861;SDS011;34681;49.188;-0.374;2022-11-20T07:01:32;6.23;;;5.67;;
48861;SDS011;34681;49.188;-0.374;2022-11-20T07:03:58;9.03;;;6.70;;
48861;SDS011;34681;49.188;-0.374;2022-11-20T07:06:23;15.87;;;8.50;;
48861;SDS011;34681;49.188;-0.374;2022-11-20T07:08:50;6.03;;;5.63;;
48861;SDS011;34681;49.188;-0.374;2022-11-20T07:11:16;7.03;;;5.87;;
48861;SDS011;34681;49.188;-0.374;2022-11-20T07:13:42;6.93;;;5.83;;
48861;SDS011;34681;49.188;-0.374;2022-11-20T07:16:08;5.83;;;5.33;;
48861;SDS011;34681;49.188;-0.374;2022-11-20T07:18:34;5.80;;;5.30;;
48861;SDS011;34681;49.188;-0.374;2022-11-20T07:21:00;5.03;;;4.70;;
48861;SDS011;34681;49.188;-0.374;2022-11-20T07:23:30;5.10;;;4.80;;
48861;SDS011;34681;49.188;-0.374;2022-11-20T07:25:55;4.63;;;4.37;;
48861;SDS011;34681;49.188;-0.374;2022-11-20T07:28:20;4.63;;;4.23;;
48861;SDS011;34681;49.188;-0.374;2022-11-20T07:30:52;4.53;;;4.33;;
48861;SDS011;34681;49.188;-0.374;2022-11-20T07:33:18;4.13;;;3.90;;
48861;SDS011;34681;49.188;-0.374;2022-11-20T07:35:44;4.47;;;4.27;;
48861;SDS011;34681;49.188;-0.374;2022-11-20T07:38:10;4.20;;;4.00;;
48861;SDS011;34681;49.188;-0.374;2022-11-20T07:40:35;4.40;;;4.00;;
48861;SDS011;34681;49.188;-0.374;2022-11-20T07:43:00;4.47;;;4.17;;
48861;SDS011;34681;49.188;-0.374;2022-11-20T07:45:26;3.60;;;3.40;;
48861;SDS011;34681;49.188;-0.374;2022-11-20T07:47:51;4.20;;;4.00;;
48861;SDS011;34681;49.188;-0.374;2022-11-20T07:50:17;3.93;;;3.73;;
48861;SDS011;34681;49.188;-0.374;2022-11-20T07:52:43;4.10;;;3.90;;
48861;SDS011;34681;49.188;-0.374;2022-11-20T07:55:09;2.60;;;2.50;;
48861;SDS011;34681;49.188;-0.374;2022-11-20T07:57:35;4.03;;;3.73;;
48861;SDS011;34681;49.188;-0.374;2022-11-20T08:00:00;3.30;;;3.10;;
48861;SDS011;34681;49.188;-0.374;2022-11-20T08:02:27;2.70;;;2.50;;
48861;SDS011;34681;49.188;-0.374;2022-11-20T08:04:52;2.93;;;2.73;;
48861;SDS011;34681;49.188;-0.374;2022-11-20T08:07:17;3.10;;;3.00;;
48861;SDS011;34681;49.188;-0.374;2022-11-20T08:09:43;4.73;;;4.17;;
48861;SDS011;34681;49.188;-0.374;2022-11-20T08:12:09;5.20;;;4.70;;
48861;SDS011;34681;49.188;-0.374;2022-11-20T08:15:00;4.60;;;4.20;;
48861;SDS011;34681;49.188;-0.374;2022-11-20T08:17:26;4.57;;;3.97;;
48861;SDS011;34681;49.188;-0.374;2022-11-20T08:19:51;5.80;;;5.33;;
48861;SDS011;34681;49.188;-0.374;2022-11-20T08:22:16;4.77;;;4.47;;
48861;SDS011;34681;49.188;-0.374;2022-11-20T08:24:42;4.80;;;4.40;;
48861;SDS011;34681;49.188;-0.374;2022-11-20T08:27:08;5.13;;;4.83;;
48861;SDS011;34681;49.188;-0.374;2022-11-20T08:29:33;4.93;;;4.47;;
48861;SDS011;34681;49.188;-0.374;2022-11-20T08:31:58;6.57;;;5.97;;
48861;SDS011;34681;49.188;-0.374;2022-11-20T08:34:24;5.50;;;5.10;;
48861;SDS011;34681;49.188;-0.374;2022-11-20T08:36:49;5.60;;;4.20;;
48861;SDS011;34681;49.188;-0.374;2022-11-20T08:39:15;4.30;;;3.87;;
48861;SDS011;34681;49.188;-0.374;2022-11-20T08:41:40;5.80;;;4.30;;
48861;SDS011;34681;49.188;-0.374;2022-11-20T08:44:06;4.03;;;3.73;;
48861;SDS011;34681;49.188;-0.374;2022-11-20T08:46:36;4.93;;;4.53;;
48861;SDS011;34681;49.188;-0.374;2022-11-20T08:49:07;5.57;;;4.23;;
48861;SDS011;34681;49.188;-0.374;2022-11-20T08:51:36;4.40;;;3.50;;
48861;SDS011;34681;49.188;-0.374;2022-11-20T08:54:02;4.07;;;3.70;;
48861;SDS011;34681;49.188;-0.374;2022-11-20T08:56:29;3.50;;;3.30;;
48861;SDS011;34681;49.188;-0.374;2022-11-20T08:58:54;4.53;;;4.20;;
48861;SDS011;34681;49.188;-0.374;2022-11-20T09:01:20;5.13;;;4.43;;
48861;SDS011;34681;49.188;-0.374;2022-11-20T09:03:46;3.97;;;3.77;;
48861;SDS011;34681;49.188;-0.374;2022-11-20T09:06:12;5.30;;;4.80;;
48861;SDS011;34681;49.188;-0.374;2022-11-20T09:08:38;5.10;;;4.60;;
48861;SDS011;34681;49.188;-0.374;2022-11-20T09:11:04;6.10;;;4.50;;
48861;SDS011;34681;49.188;-0.374;2022-11-20T09:13:30;5.50;;;4.30;;
48861;SDS011;34681;49.188;-0.374;2022-11-20T09:15:58;6.90;;;3.80;;
48861;SDS011;34681;49.188;-0.374;2022-11-20T09:18:25;6.10;;;3.30;;
48861;SDS011;34681;49.188;-0.374;2022-11-20T09:20:55;4.63;;;2.30;;
48861;SDS011;34681;49.188;-0.374;2022-11-20T09:23:21;4.83;;;2.47;;
48861;SDS011;34681;49.188;-0.374;2022-11-20T09:25:46;4.37;;;2.47;;
48861;SDS011;34681;49.188;-0.374;2022-11-20T09:28:12;5.43;;;2.30;;
48861;SDS011;34681;49.188;-0.374;2022-11-20T09:30:38;6.90;;;2.70;;
48861;SDS011;34681;49.188;-0.374;2022-11-20T09:33:04;4.97;;;2.23;;
48861;SDS011;34681;49.188;-0.374;2022-11-20T09:35:30;4.70;;;2.63;;
48861;SDS011;34681;49.188;-0.374;2022-11-20T09:37:56;7.67;;;2.50;;
48861;SDS011;34681;49.188;-0.374;2022-11-20T09:40:28;7.27;;;2.97;;
48861;SDS011;34681;49.188;-0.374;2022-11-20T09:56:11;9.23;;;3.63;;
48861;SDS011;34681;49.188;-0.374;2022-11-20T10:01:10;17.57;;;4.80;;
48861;SDS011;34681;49.188;-0.374;2022-11-20T10:03:58;15.43;;;4.93;;
48861;SDS011;34681;49.188;-0.374;2022-11-20T10:06:29;12.63;;;4.20;;
48861;SDS011;34681;49.188;-0.374;2022-11-20T10:14:33;15.30;;;4.90;;
48861;SDS011;34681;49.188;-0.374;2022-11-20T10:17:29;19.27;;;5.10;;
48861;SDS011;34681;49.188;-0.374;2022-11-20T10:25:13;20.30;;;4.83;;
48861;SDS011;34681;49.188;-0.374;2022-11-20T10:27:56;18.30;;;6.23;;
48861;SDS011;34681;49.188;-0.374;2022-11-20T10:30:28;22.30;;;4.87;;
48861;SDS011;34681;49.188;-0.374;2022-11-20T10:32:58;15.87;;;4.93;;
48861;SDS011;34681;49.188;-0.374;2022-11-20T10:35:42;17.03;;;5.00;;
48861;SDS011;34681;49.188;-0.374;2022-11-20T10:38:45;17.10;;;5.80;;
48861;SDS011;34681;49.188;-0.374;2022-11-20T10:41:09;16.30;;;4.70;;
48861;SDS011;34681;49.188;-0.374;2022-11-20T10:43:58;21.90;;;4.50;;
48861;SDS011;34681;49.188;-0.374;2022-11-20T10:46:33;20.63;;;5.20;;
48861;SDS011;34681;49.188;-0.374;2022-11-20T10:49:04;17.70;;;5.43;;
48861;SDS011;34681;49.188;-0.374;2022-11-20T10:56:49;29.03;;;5.60;;
48861;SDS011;34681;49.188;-0.374;2022-11-20T11:02:17;20.73;;;4.73;;
48861;SDS011;34681;49.188;-0.374;2022-11-20T11:04:52;18.23;;;4.17;;
48861;SDS011;34681;49.188;-0.374;2022-11-20T11:07:27;14.10;;;6.03;;
48861;SDS011;34681;49.188;-0.374;2022-11-20T11:10:05;12.93;;;4.20;;
48861;SDS011;34681;49.188;-0.374;2022-11-20T11:12:46;23.53;;;6.07;;
48861;SDS011;34681;49.188;-0.374;2022-11-20T11:15:36;16.60;;;4.80;;
48861;SDS011;34681;49.188;-0.374;2022-11-20T11:18:04;25.03;;;6.27;;
48861;SDS011;34681;49.188;-0.374;2022-11-20T11:20:29;19.73;;;4.80;;
48861;SDS011;34681;49.188;-0.374;2022-11-20T11:22:56;22.20;;;5.33;;
48861;SDS011;34681;49.188;-0.374;2022-11-20T11:25:33;23.30;;;5.50;;
48861;SDS011;34681;49.188;-0.374;2022-11-20T11:28:04;19.50;;;5.27;;
48861;SDS011;34681;49.188;-0.374;2022-11-20T11:30:45;14.50;;;5.13;;
48861;SDS011;34681;49.188;-0.374;2022-11-20T11:35:56;14.93;;;6.00;;
48861;SDS011;34681;49.188;-0.374;2022-11-20T11:40:53;24.93;;;6.40;;
48861;SDS011;34681;49.188;-0.374;2022-11-20T11:43:39;22.17;;;5.97;;
48861;SDS011;34681;49.188;-0.374;2022-11-20T11:46:35;22.47;;;5.00;;
48861;SDS011;34681;49.188;-0.374;2022-11-20T11:51:38;15.90;;;5.37;;
48861;SDS011;34681;49.188;-0.374;2022-11-20T12:05:24;16.40;;;4.53;;
48861;SDS011;34681;49.188;-0.374;2022-11-20T12:08:03;22.00;;;5.03;;
48861;SDS011;34681;49.188;-0.374;2022-11-20T12:10:44;22.23;;;6.20;;
48861;SDS011;34681;49.188;-0.374;2022-11-20T12:15:59;18.90;;;4.73;;
48861;SDS011;34681;49.188;-0.374;2022-11-20T12:18:25;27.83;;;5.50;;
48861;SDS011;34681;49.188;-0.374;2022-11-20T12:36:56;14.73;;;4.70;;
48861;SDS011;34681;49.188;-0.374;2022-11-20T12:39:51;19.07;;;5.40;;
48861;SDS011;34681;49.188;-0.374;2022-11-20T12:42:34;25.00;;;5.13;;
48861;SDS011;34681;49.188;-0.374;2022-11-20T12:53:54;16.00;;;6.03;;
48861;SDS011;34681;49.188;-0.374;2022-11-20T12:56:39;15.83;;;4.70;;
48861;SDS011;34681;49.188;-0.374;2022-11-20T13:07:24;7.20;;;3.17;;
48861;SDS011;34681;49.188;-0.374;2022-11-20T13:09:52;7.50;;;3.00;;
48861;SDS011;34681;49.188;-0.374;2022-11-20T13:17:41;9.20;;;3.13;;
48861;SDS011;34681;49.188;-0.374;2022-11-20T13:20:16;10.23;;;3.30;;
48861;SDS011;34681;49.188;-0.374;2022-11-20T13:22:53;8.70;;;3.20;;
48861;SDS011;34681;49.188;-0.374;2022-11-20T13:28:26;8.87;;;3.67;;
48861;SDS011;34681;49.188;-0.374;2022-11-20T13:30:53;9.60;;;3.37;;
48861;SDS011;34681;49.188;-0.374;2022-11-20T13:33:25;14.47;;;3.53;;
48861;SDS011;34681;49.188;-0.374;2022-11-20T13:35:55;17.10;;;4.00;;
48861;SDS011;34681;49.188;-0.374;2022-11-20T13:38:39;15.20;;;4.00;;
48861;SDS011;34681;49.188;-0.374;2022-11-20T13:41:23;13.87;;;3.33;;
48861;SDS011;34681;49.188;-0.374;2022-11-20T13:44:14;8.10;;;3.70;;
48861;SDS011;34681;49.188;-0.374;2022-11-20T13:46:48;9.80;;;4.40;;
48861;SDS011;34681;49.188;-0.374;2022-11-20T13:49:30;10.93;;;3.70;;
48861;SDS011;34681;49.188;-0.374;2022-11-20T13:52:04;13.67;;;4.00;;
48861;SDS011;34681;49.188;-0.374;2022-11-20T13:54:45;10.73;;;3.77;;
48861;SDS011;34681;49.188;-0.374;2022-11-20T13:57:34;13.63;;;3.90;;
48861;SDS011;34681;49.188;-0.374;2022-11-20T14:00:09;9.90;;;3.70;;
48861;SDS011;34681;49.188;-0.374;2022-11-20T14:02:36;9.20;;;3.80;;
48861;SDS011;34681;49.188;-0.374;2022-11-20T14:05:02;12.63;;;3.80;;
48861;SDS011;34681;49.188;-0.374;2022-11-20T14:07:37;8.57;;;3.30;;
48861;SDS011;34681;49.188;-0.374;2022-11-20T14:10:18;15.40;;;4.27;;
48861;SDS011;34681;49.188;-0.374;2022-11-20T14:12:45;12.97;;;3.60;;
48861;SDS011;34681;49.188;-0.374;2022-11-20T14:15:24;15.03;;;3.43;;
48861;SDS011;34681;49.188;-0.374;2022-11-20T14:17:52;14.43;;;3.67;;
48861;SDS011;34681;49.188;-0.374;2022-11-20T14:20:17;8.53;;;3.80;;
48861;SDS011;34681;49.188;-0.374;2022-11-20T14:22:48;13.33;;;3.97;;
48861;SDS011;34681;49.188;-0.374;2022-11-20T14:27:41;15.73;;;4.50;;
48861;SDS011;34681;49.188;-0.374;2022-11-20T14:30:13;12.67;;;4.23;;
48861;SDS011;34681;49.188;-0.374;2022-11-20T14:32:44;14.43;;;4.13;;
48861;SDS011;34681;49.188;-0.374;2022-11-20T14:37:49;15.07;;;5.10;;
48861;SDS011;34681;49.188;-0.374;2022-11-20T14:40:31;11.83;;;4.40;;
48861;SDS011;34681;49.188;-0.374;2022-11-20T14:43:00;15.57;;;4.30;;
48861;SDS011;34681;49.188;-0.374;2022-11-20T14:45:25;16.40;;;4.30;;
48861;SDS011;34681;49.188;-0.374;2022-11-20T14:47:55;12.40;;;3.50;;
48861;SDS011;34681;49.188;-0.374;2022-11-20T14:50:23;11.70;;;3.63;;
48861;SDS011;34681;49.188;-0.374;2022-11-20T14:52:57;17.47;;;4.53;;
48861;SDS011;34681;49.188;-0.374;2022-11-20T14:55:37;13.43;;;5.27;;
48861;SDS011;34681;49.188;-0.374;2022-11-20T15:00:30;13.90;;;4.10;;
48861;SDS011;34681;49.188;-0.374;2022-11-20T15:02:57;8.87;;;3.30;;
48861;SDS011;34681;49.188;-0.374;2022-11-20T15:05:25;14.80;;;4.40;;
48861;SDS011;34681;49.188;-0.374;2022-11-20T15:08:10;11.27;;;3.00;;
48861;SDS011;34681;49.188;-0.374;2022-11-20T15:10:37;13.43;;;4.40;;
48861;SDS011;34681;49.188;-0.374;2022-11-20T15:13:10;15.33;;;3.60;;
48861;SDS011;34681;49.188;-0.374;2022-11-20T15:18:12;15.17;;;4.47;;
48861;SDS011;34681;49.188;-0.374;2022-11-20T15:20:40;13.67;;;3.53;;
48861;SDS011;34681;49.188;-0.374;2022-11-20T15:23:13;11.50;;;4.10;;
48861;SDS011;34681;49.188;-0.374;2022-11-20T15:25:42;10.13;;;3.93;;
48861;SDS011;34681;49.188;-0.374;2022-11-20T15:28:12;10.63;;;4.13;;
48861;SDS011;34681;49.188;-0.374;2022-11-20T15:30:39;13.30;;;3.33;;
48861;SDS011;34681;49.188;-0.374;2022-11-20T15:33:07;13.60;;;4.27;;
48861;SDS011;34681;49.188;-0.374;2022-11-20T15:35:33;15.40;;;4.23;;
48861;SDS011;34681;49.188;-0.374;2022-11-20T15:37:58;9.90;;;3.87;;
48861;SDS011;34681;49.188;-0.374;2022-11-20T15:40:24;17.10;;;4.10;;
48861;SDS011;34681;49.188;-0.374;2022-11-20T15:42:49;14.60;;;4.60;;
48861;SDS011;34681;49.188;-0.374;2022-11-20T15:45:46;19.30;;;5.70;;
48861;SDS011;34681;49.188;-0.374;2022-11-20T15:48:16;13.50;;;4.37;;
48861;SDS011;34681;49.188;-0.374;2022-11-20T15:50:53;12.13;;;3.40;;
48861;SDS011;34681;49.188;-0.374;2022-11-20T15:53:28;16.27;;;4.10;;
48861;SDS011;34681;49.188;-0.374;2022-11-20T15:55:54;16.40;;;4.57;;
48861;SDS011;34681;49.188;-0.374;2022-11-20T15:58:20;7.50;;;2.67;;
48861;SDS011;34681;49.188;-0.374;2022-11-20T16:00:47;9.97;;;3.70;;
48861;SDS011;34681;49.188;-0.374;2022-11-20T16:03:13;12.70;;;4.10;;
48861;SDS011;34681;49.188;-0.374;2022-11-20T16:05:40;10.13;;;3.70;;
48861;SDS011;34681;49.188;-0.374;2022-11-20T16:08:06;8.43;;;3.60;;
48861;SDS011;34681;49.188;-0.374;2022-11-20T16:10:31;12.07;;;3.30;;
48861;SDS011;34681;49.188;-0.374;2022-11-20T16:12:57;9.33;;;2.67;;
48861;SDS011;34681;49.188;-0.374;2022-11-20T16:15:41;9.43;;;3.60;;
48861;SDS011;34681;49.188;-0.374;2022-11-20T16:18:14;10.80;;;3.30;;
48861;SDS011;34681;49.188;-0.374;2022-11-20T16:20:41;6.67;;;2.83;;
48861;SDS011;34681;49.188;-0.374;2022-11-20T16:23:06;7.57;;;2.83;;
48861;SDS011;34681;49.188;-0.374;2022-11-20T16:25:32;11.37;;;2.40;;
48861;SDS011;34681;49.188;-0.374;2022-11-20T16:27:58;8.33;;;3.50;;
48861;SDS011;34681;49.188;-0.374;2022-11-20T16:30:23;9.97;;;3.53;;
48861;SDS011;34681;49.188;-0.374;2022-11-20T16:32:49;13.00;;;4.73;;
48861;SDS011;34681;49.188;-0.374;2022-11-20T16:35:14;12.63;;;4.47;;
48861;SDS011;34681;49.188;-0.374;2022-11-20T16:37:40;7.27;;;3.57;;
48861;SDS011;34681;49.188;-0.374;2022-11-20T16:40:05;17.27;;;4.50;;